クライストチャーチ の空港の天気 - METARとTAF

クライストチャーチ国際空港 ( NZCH / CHC ) - ニュージーランド クライストチャーチ
飛行場実況気象(Metar)
観測時間10/16 06:00 NZDT (10/15 17:00 UTC)
風向・風速南西 2m/s
視程4900m
天気現象雨 もや
少しの雲 雲底高度 120m
全天の8割程度の雲 雲底高度 340m
全天の8割程度の雲 雲底高度 490m
気温9℃
湿度100%
気圧1008hPa
METARNZCH 151700Z AUTO 22003KT 4900 RA BR FEW004/// BKN011/// BKN016/// 09/09 Q1008 TEMPO 9999 -RA
過去の天気等 Google飛行場航空写真 Wunderground天気予報

過去48時間のMETAR

飛行場予報(TAF)
発表時間: 10/16 04:29 NZDT (10/15 15:29 UTC)
予報対象時間: 16日4時 NZDT ~ 17日1時 NZDT
風向・風速東 3m/s
視程10km以上
天気現象弱い雨
少しの雲 雲底高度 370m
全天の8割程度の雲 雲底高度 760m
16日4時 NZDT ~ 16日11時 NZDT に一時的に
視程6000m
天気現象しゅう雨
16日13時 NZDT から
風向・風速南南西 5m/s
視程10km以上
天気現象弱いしゅう雨
全天の4割程度の雲 雲底高度 610m
16日16時 NZDT から
風向・風速不定 1m/s
視程10km以上
少しの雲 雲底高度 910m
17日0時 NZDT から 確率 40% で
視程200m
天気現象
TAF AMD NZCH 151529Z 1515/1612 08005KT 9999 -RA FEW012 BKN025
TEMPO 1515/1522 6000 SHRA
FM160000 20010KT 9999 -SHRA SCT020
FM160300 VRB02KT 9999 FEW030
PROB40 1611/1612 0200 FG